createdAt,value
2017-08-09T00:00:13.163Z,0
2017-08-09T00:01:12.924Z,0
2017-08-09T00:02:12.633Z,0
2017-08-09T00:03:12.632Z,0
2017-08-09T00:04:12.936Z,0
2017-08-09T00:05:13.954Z,0
2017-08-09T00:06:12.643Z,0
2017-08-09T00:07:12.659Z,0
2017-08-09T00:08:12.378Z,0
2017-08-09T00:09:12.349Z,0
2017-08-09T00:10:14.055Z,0
2017-08-09T00:11:12.655Z,0
2017-08-09T00:12:12.947Z,0
2017-08-09T00:13:12.656Z,0
2017-08-09T00:14:12.450Z,0
2017-08-09T00:15:14.714Z,0
2017-08-09T00:16:12.661Z,0
2017-08-09T00:17:12.963Z,0
2017-08-09T00:18:12.970Z,0
2017-08-09T00:19:12.382Z,0
2017-08-09T00:20:13.934Z,0
2017-08-09T00:21:12.973Z,0
2017-08-09T00:22:12.676Z,0
2017-08-09T00:23:12.975Z,0
2017-08-09T00:24:12.985Z,0
2017-08-09T00:25:13.744Z,0
2017-08-09T00:26:12.678Z,0
2017-08-09T00:27:12.980Z,0
2017-08-09T00:28:12.989Z,0
2017-08-09T00:29:14.495Z,0
2017-08-09T00:30:13.760Z,0
2017-08-09T00:31:12.997Z,0
2017-08-09T00:32:12.701Z,0
2017-08-09T00:33:12.998Z,0
2017-08-09T00:34:13.008Z,0
2017-08-09T00:35:13.413Z,0
2017-08-09T00:36:12.702Z,0
2017-08-09T00:37:13.001Z,0
2017-08-09T00:38:13.006Z,0
2017-08-09T00:39:12.703Z,0
2017-08-09T00:40:14.057Z,0
2017-08-09T00:41:13.022Z,0
2017-08-09T00:42:12.721Z,0
2017-08-09T00:43:12.750Z,0
2017-08-09T00:44:13.089Z,0
2017-08-09T00:45:14.228Z,0
2017-08-09T00:46:13.048Z,0
2017-08-09T00:47:13.029Z,0
2017-08-09T00:48:13.041Z,0
2017-08-09T00:49:12.733Z,0
2017-08-09T00:50:14.172Z,0
2017-08-09T00:51:12.744Z,0
2017-08-09T00:52:13.049Z,0
2017-08-09T00:53:12.456Z,0
2017-08-09T00:54:12.740Z,0
2017-08-09T00:55:14.037Z,0
2017-08-09T00:56:12.738Z,0
2017-08-09T00:57:13.074Z,0
2017-08-09T00:58:12.766Z,0
2017-08-09T00:59:13.911Z,0
2017-08-09T01:00:13.972Z,0
2017-08-09T01:01:13.073Z,0
2017-08-09T01:02:13.080Z,0
2017-08-09T01:03:13.064Z,0
2017-08-09T01:04:12.771Z,0
2017-08-09T01:05:14.412Z,0
2017-08-09T01:06:12.769Z,0
2017-08-09T01:07:13.137Z,0
2017-08-09T01:08:12.781Z,0
2017-08-09T01:09:13.089Z,0
2017-08-09T01:10:14.153Z,0
2017-08-09T01:11:13.088Z,0
2017-08-09T01:12:13.080Z,0
2017-08-09T01:13:12.480Z,0
2017-08-09T01:14:13.145Z,0
2017-08-09T01:15:14.971Z,0
2017-08-09T01:16:13.126Z,0
2017-08-09T01:17:12.797Z,0
2017-08-09T01:18:12.499Z,0
2017-08-09T01:19:13.142Z,0
2017-08-09T01:20:13.843Z,0
2017-08-09T01:21:13.107Z,0
2017-08-09T01:22:12.801Z,0
2017-08-09T01:23:12.806Z,0
2017-08-09T01:24:12.794Z,0
2017-08-09T01:25:14.816Z,0
2017-08-09T01:26:12.810Z,0
2017-08-09T01:27:12.815Z,0
2017-08-09T01:28:13.152Z,0
2017-08-09T01:29:16.584Z,0
2017-08-09T01:30:14.304Z,0
2017-08-09T01:31:12.819Z,0
2017-08-09T01:32:12.816Z,0
2017-08-09T01:33:12.517Z,0
2017-08-09T01:34:12.820Z,0
2017-08-09T01:35:14.462Z,0
2017-08-09T01:36:13.141Z,0
2017-08-09T01:37:13.151Z,0
2017-08-09T01:38:12.536Z,0
2017-08-09T01:39:13.176Z,0
2017-08-09T01:40:13.888Z,0
2017-08-09T01:41:12.836Z,0
2017-08-09T01:42:13.172Z,0
2017-08-09T01:43:12.853Z,0
2017-08-09T01:44:12.544Z,0
2017-08-09T01:45:13.504Z,0
2017-08-09T01:46:12.855Z,0
2017-08-09T01:47:12.855Z,0
2017-08-09T01:48:13.169Z,0
2017-08-09T01:49:13.164Z,0
2017-08-09T01:50:14.989Z,0
2017-08-09T01:51:13.177Z,0
2017-08-09T01:52:13.162Z,0
2017-08-09T01:53:13.186Z,0
2017-08-09T01:54:13.178Z,0
2017-08-09T01:55:14.878Z,0
2017-08-09T01:56:12.901Z,0
2017-08-09T01:57:13.200Z,0
2017-08-09T01:58:13.200Z,0
2017-08-09T01:59:13.189Z,0
2017-08-09T02:00:14.724Z,0
2017-08-09T02:01:12.881Z,0
2017-08-09T02:02:12.886Z,0
2017-08-09T02:03:13.203Z,0
2017-08-09T02:04:12.579Z,0
2017-08-09T02:05:13.815Z,0
2017-08-09T02:06:12.898Z,0
2017-08-09T02:07:13.206Z,0
2017-08-09T02:08:12.893Z,0
2017-08-09T02:09:12.296Z,0
2017-08-09T02:10:14.355Z,0
2017-08-09T02:11:13.208Z,0
2017-08-09T02:12:13.214Z,0
2017-08-09T02:13:13.230Z,0
2017-08-09T02:14:12.905Z,0
2017-08-09T02:15:14.716Z,0
2017-08-09T02:16:13.217Z,0
2017-08-09T02:17:12.906Z,0
2017-08-09T02:18:12.913Z,0
2017-08-09T02:19:13.244Z,0
2017-08-09T02:20:14.370Z,0
2017-08-09T02:21:13.234Z,0
2017-08-09T02:22:12.917Z,0
2017-08-09T02:23:12.917Z,0
2017-08-09T02:24:13.225Z,0
2017-08-09T02:25:14.186Z,0
2017-08-09T02:26:13.324Z,0
2017-08-09T02:27:13.240Z,0
2017-08-09T02:28:13.269Z,0
2017-08-09T02:29:13.258Z,0
2017-08-09T02:30:14.256Z,0
2017-08-09T02:31:13.269Z,0
2017-08-09T02:32:13.236Z,0
2017-08-09T02:33:13.269Z,0
2017-08-09T02:34:13.273Z,0
2017-08-09T02:35:14.209Z,0
2017-08-09T02:36:13.276Z,0
2017-08-09T02:37:12.943Z,0
2017-08-09T02:38:12.940Z,0
2017-08-09T02:39:13.264Z,0
2017-08-09T02:40:14.900Z,0
2017-08-09T02:41:13.325Z,0
2017-08-09T02:42:13.268Z,0
2017-08-09T02:43:13.283Z,0
2017-08-09T02:44:13.273Z,0
2017-08-09T02:45:13.921Z,0
2017-08-09T02:46:13.275Z,0
2017-08-09T02:47:13.275Z,0
2017-08-09T02:48:13.287Z,0
2017-08-09T02:49:12.957Z,0
2017-08-09T02:50:13.954Z,0
2017-08-09T02:51:12.960Z,0
2017-08-09T02:52:12.975Z,0
2017-08-09T02:53:12.968Z,0
2017-08-09T02:54:13.302Z,0
2017-08-09T02:55:14.675Z,0
2017-08-09T02:56:13.293Z,0
2017-08-09T02:57:13.284Z,0
2017-08-09T02:58:13.338Z,0
2017-08-09T02:59:12.710Z,0
2017-08-09T03:00:15.371Z,0
2017-08-09T03:01:12.994Z,0
2017-08-09T03:02:13.354Z,0
2017-08-09T03:03:12.978Z,0
2017-08-09T03:04:13.072Z,0
2017-08-09T03:05:14.449Z,0
2017-08-09T03:06:13.051Z,0
2017-08-09T03:07:12.398Z,0
2017-08-09T03:08:13.307Z,0
2017-08-09T03:09:12.993Z,0
2017-08-09T03:10:14.202Z,0
2017-08-09T03:11:13.310Z,0
2017-08-09T03:12:13.320Z,0
2017-08-09T03:13:13.312Z,0
2017-08-09T03:14:13.311Z,0
2017-08-09T03:15:14.173Z,0
2017-08-09T03:16:13.314Z,0
2017-08-09T03:17:13.011Z,0
2017-08-09T03:18:13.325Z,0
2017-08-09T03:19:13.013Z,0
2017-08-09T03:20:14.495Z,0
2017-08-09T03:21:13.003Z,0
2017-08-09T03:22:13.317Z,0
2017-08-09T03:23:13.323Z,0
2017-08-09T03:24:13.340Z,0
2017-08-09T03:25:15.599Z,0
2017-08-09T03:26:12.713Z,0
2017-08-09T03:27:13.323Z,0
2017-08-09T03:28:13.040Z,0
2017-08-09T03:29:13.359Z,0
2017-08-09T03:30:14.740Z,0
2017-08-09T03:31:13.360Z,0
2017-08-09T03:32:13.036Z,0
2017-08-09T03:33:13.365Z,0
2017-08-09T03:34:13.355Z,0
2017-08-09T03:35:14.928Z,0
2017-08-09T03:36:13.025Z,0
2017-08-09T03:37:13.360Z,0
2017-08-09T03:38:13.039Z,0
2017-08-09T03:39:13.041Z,0
2017-08-09T03:40:15.074Z,0
2017-08-09T03:41:13.360Z,0
2017-08-09T03:42:13.036Z,0
2017-08-09T03:43:13.365Z,0
2017-08-09T03:44:13.405Z,0
2017-08-09T03:45:16.479Z,0
2017-08-09T03:46:13.041Z,0
2017-08-09T03:47:13.042Z,0
2017-08-09T03:48:13.046Z,0
2017-08-09T03:49:13.368Z,0
2017-08-09T03:50:15.331Z,0
2017-08-09T03:51:13.379Z,0
2017-08-09T03:52:13.379Z,0
2017-08-09T03:53:13.391Z,0
2017-08-09T03:54:13.365Z,0
2017-08-09T03:55:15.693Z,0
2017-08-09T03:56:13.378Z,0
2017-08-09T03:57:13.373Z,0
2017-08-09T03:58:12.761Z,0
2017-08-09T03:59:13.369Z,0
2017-08-09T04:00:16.882Z,0
2017-08-09T04:01:13.085Z,0
2017-08-09T04:02:13.380Z,0
2017-08-09T04:03:13.400Z,0
2017-08-09T04:04:13.066Z,0
2017-08-09T04:05:15.045Z,0
2017-08-09T04:06:13.395Z,5
2017-08-09T04:07:13.396Z,5
2017-08-09T04:08:13.396Z,5
2017-08-09T04:09:13.404Z,5
2017-08-09T04:10:17.562Z,5
2017-08-09T04:11:13.078Z,5
2017-08-09T04:12:13.400Z,5
2017-08-09T04:13:13.409Z,5
2017-08-09T04:14:13.409Z,5
2017-08-09T04:15:16.292Z,5
2017-08-09T04:16:13.417Z,5
2017-08-09T04:17:13.402Z,10
2017-08-09T04:18:13.093Z,10
2017-08-09T04:19:13.402Z,10
2017-08-09T04:20:14.840Z,10
2017-08-09T04:21:13.414Z,10
2017-08-09T04:22:13.410Z,10
2017-08-09T04:23:13.422Z,15
2017-08-09T04:24:13.475Z,15
2017-08-09T04:25:14.284Z,15
2017-08-09T04:26:13.098Z,15
2017-08-09T04:27:13.103Z,15
2017-08-09T04:28:13.101Z,20
2017-08-09T04:29:13.417Z,20
2017-08-09T04:30:14.517Z,20
2017-08-09T04:31:13.476Z,25
2017-08-09T04:32:14.204Z,25
2017-08-09T04:33:13.433Z,30
2017-08-09T04:34:13.110Z,30
2017-08-09T04:35:13.881Z,30
2017-08-09T04:36:13.465Z,35
2017-08-09T04:37:13.428Z,35
2017-08-09T04:38:13.127Z,35
2017-08-09T04:39:12.819Z,40
2017-08-09T04:40:14.126Z,40
2017-08-09T04:41:13.126Z,40
2017-08-09T04:42:13.435Z,40
2017-08-09T04:43:13.442Z,45
2017-08-09T04:44:13.149Z,45
2017-08-09T04:45:14.599Z,45
2017-08-09T04:46:13.888Z,50
2017-08-09T04:47:13.455Z,50
2017-08-09T04:48:13.132Z,50
2017-08-09T04:49:13.470Z,50
2017-08-09T04:50:14.894Z,50
2017-08-09T04:51:13.453Z,50
2017-08-09T04:52:13.488Z,50
2017-08-09T04:53:13.441Z,55
2017-08-09T04:54:13.157Z,55
2017-08-09T04:55:15.232Z,55
2017-08-09T04:56:12.850Z,60
2017-08-09T04:57:13.481Z,60
2017-08-09T04:58:13.505Z,65
2017-08-09T04:59:13.240Z,65
2017-08-09T05:00:14.911Z,65
2017-08-09T05:01:13.318Z,70
2017-08-09T05:02:13.168Z,65
2017-08-09T05:03:13.532Z,65
2017-08-09T05:04:13.549Z,70
2017-08-09T05:05:14.910Z,75
2017-08-09T05:06:13.193Z,75
2017-08-09T05:07:13.170Z,80
2017-08-09T05:08:13.499Z,80
2017-08-09T05:09:13.489Z,85
2017-08-09T05:10:15.468Z,85
2017-08-09T05:11:13.478Z,85
2017-08-09T05:12:13.175Z,85
2017-08-09T05:13:13.483Z,85
2017-08-09T05:14:13.511Z,90
2017-08-09T05:15:14.006Z,90
2017-08-09T05:16:13.940Z,90
2017-08-09T05:17:13.509Z,90
2017-08-09T05:18:13.204Z,90
2017-08-09T05:19:13.499Z,90
2017-08-09T05:20:14.987Z,85
2017-08-09T05:21:13.493Z,85
2017-08-09T05:22:13.503Z,85
2017-08-09T05:23:13.504Z,85
2017-08-09T05:24:13.195Z,90
2017-08-09T05:25:15.374Z,90
2017-08-09T05:26:13.217Z,90
2017-08-09T05:27:13.515Z,90
2017-08-09T05:28:13.520Z,90
2017-08-09T05:29:13.217Z,95
2017-08-09T05:30:15.026Z,95
2017-08-09T05:31:15.349Z,100
2017-08-09T05:32:13.532Z,95
2017-08-09T05:33:13.228Z,95
2017-08-09T05:34:13.231Z,95
2017-08-09T05:35:14.910Z,90
2017-08-09T05:36:12.931Z,90
2017-08-09T05:37:13.529Z,90
2017-08-09T05:38:13.541Z,90
2017-08-09T05:39:13.532Z,90
2017-08-09T05:40:14.378Z,95
2017-08-09T05:41:13.547Z,100
2017-08-09T05:42:13.543Z,110
2017-08-09T05:43:13.544Z,110
2017-08-09T05:44:13.553Z,115
2017-08-09T05:45:14.809Z,115
2017-08-09T05:46:14.414Z,115
2017-08-09T05:47:12.956Z,120
2017-08-09T05:48:13.279Z,120
2017-08-09T05:49:13.551Z,120
2017-08-09T05:50:15.181Z,120
2017-08-09T05:51:12.648Z,120
2017-08-09T05:52:12.672Z,115
2017-08-09T05:53:13.573Z,115
2017-08-09T05:54:13.579Z,115
2017-08-09T05:55:14.703Z,110
2017-08-09T05:56:13.288Z,110
2017-08-09T05:57:13.573Z,115
2017-08-09T05:58:13.286Z,115
2017-08-09T05:59:12.987Z,115
2017-08-09T06:00:14.634Z,120
2017-08-09T06:01:13.343Z,120
2017-08-09T06:02:13.614Z,120
2017-08-09T06:03:13.589Z,120
2017-08-09T06:04:13.327Z,115
2017-08-09T06:05:14.927Z,120
2017-08-09T06:06:13.618Z,120
2017-08-09T06:07:13.304Z,125
2017-08-09T06:08:13.616Z,125
2017-08-09T06:09:13.323Z,125
2017-08-09T06:10:15.397Z,125
2017-08-09T06:11:13.620Z,125
2017-08-09T06:12:13.337Z,125
2017-08-09T06:13:13.642Z,125
2017-08-09T06:14:13.354Z,125
2017-08-09T06:15:15.341Z,125
2017-08-09T06:16:13.583Z,125
2017-08-09T06:17:13.341Z,125
2017-08-09T06:18:13.638Z,135
2017-08-09T06:19:13.646Z,135
2017-08-09T06:20:14.248Z,140
2017-08-09T06:21:13.633Z,140
2017-08-09T06:22:12.735Z,145
2017-08-09T06:23:13.383Z,150
2017-08-09T06:24:13.044Z,150
2017-08-09T06:25:15.122Z,155
2017-08-09T06:26:13.677Z,160
2017-08-09T06:27:13.662Z,160
2017-08-09T06:28:13.657Z,165
2017-08-09T06:29:13.677Z,160
2017-08-09T06:30:15.201Z,165
2017-08-09T06:31:13.744Z,165
2017-08-09T06:32:13.679Z,165
2017-08-09T06:33:13.071Z,160
2017-08-09T06:34:13.698Z,165
2017-08-09T06:35:13.877Z,160
2017-08-09T06:36:13.693Z,160
2017-08-09T06:37:13.703Z,165
2017-08-09T06:38:13.418Z,165
2017-08-09T06:39:13.411Z,165
2017-08-09T06:40:15.208Z,165
2017-08-09T06:41:13.737Z,160
2017-08-09T06:42:13.113Z,165
2017-08-09T06:43:13.408Z,160
2017-08-09T06:44:13.420Z,160
2017-08-09T06:45:15.390Z,165
2017-08-09T06:46:15.451Z,165
2017-08-09T06:47:13.728Z,165
2017-08-09T06:48:13.727Z,170
2017-08-09T06:49:13.730Z,175
2017-08-09T06:50:15.064Z,180
2017-08-09T06:51:13.756Z,190
2017-08-09T06:52:13.758Z,190
2017-08-09T06:53:13.144Z,195
2017-08-09T06:54:13.454Z,205
2017-08-09T06:55:14.890Z,205
2017-08-09T06:56:13.153Z,210
2017-08-09T06:57:13.150Z,215
2017-08-09T06:58:13.768Z,220
2017-08-09T06:59:13.159Z,225
2017-08-09T07:00:15.161Z,225
2017-08-09T07:01:15.271Z,230
2017-08-09T07:02:13.501Z,225
2017-08-09T07:03:13.482Z,230
2017-08-09T07:04:13.484Z,225
2017-08-09T07:05:15.027Z,235
2017-08-09T07:06:12.905Z,235
2017-08-09T07:07:13.535Z,240
2017-08-09T07:08:13.524Z,245
2017-08-09T07:09:13.508Z,245
2017-08-09T07:10:15.016Z,250
2017-08-09T07:11:13.829Z,270
2017-08-09T07:12:13.529Z,260
2017-08-09T07:13:13.527Z,270
2017-08-09T07:14:13.232Z,335
2017-08-09T07:15:14.408Z,265
2017-08-09T07:16:15.134Z,265
2017-08-09T07:17:13.540Z,265
2017-08-09T07:18:13.835Z,265
2017-08-09T07:19:13.852Z,260
2017-08-09T07:20:14.942Z,255
2017-08-09T07:21:13.550Z,255
2017-08-09T07:22:13.576Z,260
2017-08-09T07:23:13.551Z,260
2017-08-09T07:24:13.581Z,260
2017-08-09T07:25:15.346Z,265
2017-08-09T07:26:13.886Z,260
2017-08-09T07:27:12.983Z,255
2017-08-09T07:28:13.894Z,255
2017-08-09T07:29:13.588Z,255
2017-08-09T07:30:15.056Z,260
2017-08-09T07:31:13.895Z,265
2017-08-09T07:32:16.253Z,260
2017-08-09T07:33:13.897Z,260
2017-08-09T07:34:13.606Z,260
2017-08-09T07:35:15.546Z,255
2017-08-09T07:36:13.910Z,255
2017-08-09T07:37:13.610Z,265
2017-08-09T07:38:13.345Z,270
2017-08-09T07:39:13.921Z,280
2017-08-09T07:40:14.907Z,275
2017-08-09T07:41:13.934Z,280
2017-08-09T07:42:13.639Z,270
2017-08-09T07:43:13.946Z,270
2017-08-09T07:44:13.935Z,265
2017-08-09T07:45:14.809Z,265
2017-08-09T07:46:13.649Z,265
2017-08-09T07:47:14.353Z,270
2017-08-09T07:48:13.966Z,270
2017-08-09T07:49:13.975Z,275
2017-08-09T07:50:14.673Z,285
2017-08-09T07:51:13.671Z,290
2017-08-09T07:52:13.674Z,295
2017-08-09T07:53:13.678Z,295
2017-08-09T07:54:13.990Z,295
2017-08-09T07:55:15.254Z,290
2017-08-09T07:56:13.990Z,285
2017-08-09T07:57:13.692Z,280
2017-08-09T07:58:13.698Z,280
2017-08-09T07:59:14.023Z,270
2017-08-09T08:00:14.819Z,270
2017-08-09T08:01:14.028Z,260
2017-08-09T08:02:14.069Z,275
2017-08-09T08:03:14.030Z,280
2017-08-09T08:04:14.028Z,295
2017-08-09T08:05:15.227Z,305
2017-08-09T08:06:13.456Z,310
2017-08-09T08:07:13.738Z,320
2017-08-09T08:08:13.463Z,330
2017-08-09T08:09:13.755Z,330
2017-08-09T08:10:14.835Z,335
2017-08-09T08:11:14.062Z,335
2017-08-09T08:12:13.768Z,340
2017-08-09T08:13:13.762Z,320
2017-08-09T08:14:13.514Z,315
2017-08-09T08:15:14.913Z,315
2017-08-09T08:16:13.797Z,320
2017-08-09T08:17:15.589Z,320
2017-08-09T08:18:14.088Z,330
2017-08-09T08:19:13.520Z,340
2017-08-09T08:20:14.984Z,350
2017-08-09T08:21:14.101Z,345
2017-08-09T08:22:13.804Z,345
2017-08-09T08:23:14.120Z,345
2017-08-09T08:24:14.125Z,335
2017-08-09T08:25:14.940Z,330
2017-08-09T08:26:13.534Z,320
2017-08-09T08:27:13.829Z,310
2017-08-09T08:28:13.564Z,305
2017-08-09T08:29:13.845Z,305
2017-08-09T08:30:16.069Z,305
2017-08-09T08:31:14.153Z,305
2017-08-09T08:32:14.220Z,310
2017-08-09T08:33:14.185Z,310
2017-08-09T08:34:13.563Z,310
2017-08-09T08:35:15.117Z,315
2017-08-09T08:36:14.213Z,320
2017-08-09T08:37:13.884Z,345
2017-08-09T08:38:14.202Z,370
2017-08-09T08:39:13.885Z,395
2017-08-09T08:40:15.864Z,390
2017-08-09T08:41:13.615Z,395
2017-08-09T08:42:13.912Z,415
2017-08-09T08:43:13.925Z,405
2017-08-09T08:44:14.219Z,435
2017-08-09T08:45:15.198Z,435
2017-08-09T08:46:13.932Z,430
2017-08-09T08:47:15.931Z,410
2017-08-09T08:48:14.269Z,410
2017-08-09T08:49:13.960Z,415
2017-08-09T08:50:15.255Z,385
2017-08-09T08:51:14.263Z,385
2017-08-09T08:52:14.282Z,390
2017-08-09T08:53:14.270Z,395
2017-08-09T08:54:13.980Z,410
2017-08-09T08:55:15.377Z,410
2017-08-09T08:56:14.281Z,380
2017-08-09T08:57:14.293Z,400
2017-08-09T08:58:13.422Z,405
2017-08-09T08:59:14.005Z,530
2017-08-09T09:00:15.845Z,430
2017-08-09T09:01:13.719Z,435
2017-08-09T09:02:14.028Z,380
2017-08-09T09:03:16.391Z,360
2017-08-09T09:04:14.339Z,400
2017-08-09T09:05:15.404Z,415
2017-08-09T09:06:14.340Z,460
2017-08-09T09:07:14.352Z,450
2017-08-09T09:08:14.357Z,425
2017-08-09T09:09:14.365Z,465
2017-08-09T09:10:14.754Z,425
2017-08-09T09:11:14.393Z,365
2017-08-09T09:12:13.779Z,395
2017-08-09T09:13:14.379Z,365
2017-08-09T09:14:14.144Z,335
2017-08-09T09:15:14.872Z,335
2017-08-09T09:16:14.400Z,325
2017-08-09T09:17:14.111Z,305
2017-08-09T09:18:16.819Z,320
2017-08-09T09:19:14.476Z,320
2017-08-09T09:20:15.488Z,315
2017-08-09T09:21:13.832Z,315
2017-08-09T09:22:14.455Z,310
2017-08-09T09:23:13.846Z,315
2017-08-09T09:24:14.470Z,310
2017-08-09T09:25:14.731Z,310
2017-08-09T09:26:14.473Z,315
2017-08-09T09:27:14.172Z,310
2017-08-09T09:28:14.194Z,310
2017-08-09T09:29:14.484Z,305
2017-08-09T09:30:15.323Z,305
2017-08-09T09:31:14.196Z,310
2017-08-09T09:32:14.200Z,310
2017-08-09T09:33:14.245Z,305
2017-08-09T09:34:14.501Z,305
2017-08-09T09:35:15.256Z,310
2017-08-09T09:36:14.217Z,305
2017-08-09T09:37:14.540Z,305
2017-08-09T09:38:14.233Z,305
2017-08-09T09:39:13.954Z,305
2017-08-09T09:40:14.966Z,305
2017-08-09T09:41:14.560Z,305
2017-08-09T09:42:14.560Z,300
2017-08-09T09:43:14.252Z,300
2017-08-09T09:44:14.573Z,305
2017-08-09T09:45:15.237Z,310
2017-08-09T09:46:13.970Z,315
2017-08-09T09:47:14.575Z,305
2017-08-09T09:48:16.477Z,295
2017-08-09T09:49:14.283Z,300
2017-08-09T09:50:15.392Z,275
2017-08-09T09:51:14.587Z,260
2017-08-09T09:52:14.304Z,310
2017-08-09T09:53:14.007Z,315
2017-08-09T09:54:14.318Z,315
2017-08-09T09:55:15.512Z,310
2017-08-09T09:56:14.315Z,325
2017-08-09T09:57:14.033Z,360
2017-08-09T09:58:14.313Z,365
2017-08-09T09:59:14.618Z,365
2017-08-09T10:00:15.304Z,370
2017-08-09T10:01:14.022Z,400
2017-08-09T10:02:14.638Z,400
2017-08-09T10:03:14.091Z,385
2017-08-09T10:04:14.047Z,410
2017-08-09T10:05:15.415Z,385
2017-08-09T10:06:14.359Z,355
2017-08-09T10:07:13.757Z,350
2017-08-09T10:08:14.670Z,365
2017-08-09T10:09:14.384Z,365
2017-08-09T10:10:15.501Z,375
2017-08-09T10:11:14.688Z,375
2017-08-09T10:12:14.395Z,365
2017-08-09T10:13:14.726Z,370
2017-08-09T10:14:14.400Z,375
2017-08-09T10:15:15.638Z,365
2017-08-09T10:16:14.739Z,350
2017-08-09T10:17:14.418Z,350
2017-08-09T10:18:14.115Z,365
2017-08-09T10:19:14.899Z,385
2017-08-09T10:20:16.176Z,400
2017-08-09T10:21:14.443Z,395
2017-08-09T10:22:14.752Z,400
2017-08-09T10:23:14.476Z,395
2017-08-09T10:24:14.459Z,400
2017-08-09T10:25:15.552Z,370
2017-08-09T10:26:14.485Z,360
2017-08-09T10:27:14.791Z,350
2017-08-09T10:28:14.500Z,340
2017-08-09T10:29:14.496Z,350
2017-08-09T10:30:15.428Z,370
2017-08-09T10:31:14.818Z,360
2017-08-09T10:32:14.502Z,365
2017-08-09T10:33:14.501Z,370
2017-08-09T10:34:14.619Z,380
2017-08-09T10:35:15.303Z,395
2017-08-09T10:36:14.525Z,405
2017-08-09T10:37:14.528Z,415
2017-08-09T10:38:14.226Z,435
2017-08-09T10:39:14.568Z,440
2017-08-09T10:40:15.787Z,455
2017-08-09T10:41:14.875Z,485
2017-08-09T10:42:14.251Z,470
2017-08-09T10:43:14.570Z,495
2017-08-09T10:44:14.602Z,460
2017-08-09T10:45:15.250Z,415
2017-08-09T10:46:14.875Z,400
2017-08-09T10:47:13.976Z,405
2017-08-09T10:48:14.582Z,420
2017-08-09T10:49:15.898Z,415
2017-08-09T10:50:15.671Z,430
2017-08-09T10:51:14.929Z,420
2017-08-09T10:52:14.614Z,415
2017-08-09T10:53:14.616Z,410
2017-08-09T10:54:14.924Z,410
2017-08-09T10:55:15.493Z,415
2017-08-09T10:56:14.632Z,410
2017-08-09T10:57:14.633Z,405
2017-08-09T10:58:14.338Z,405
2017-08-09T10:59:14.939Z,405
2017-08-09T11:00:15.643Z,405
2017-08-09T11:01:14.971Z,400
2017-08-09T11:02:14.652Z,395
2017-08-09T11:03:14.966Z,390
2017-08-09T11:04:14.074Z,385
2017-08-09T11:05:15.572Z,380
2017-08-09T11:06:15.004Z,380
2017-08-09T11:07:14.990Z,370
2017-08-09T11:08:14.994Z,355
2017-08-09T11:09:15.042Z,350
2017-08-09T11:10:16.107Z,340
2017-08-09T11:11:14.722Z,340
2017-08-09T11:12:14.706Z,355
2017-08-09T11:13:14.417Z,370
2017-08-09T11:14:15.055Z,365
2017-08-09T11:15:15.948Z,355
2017-08-09T11:16:14.737Z,360
2017-08-09T11:17:15.027Z,350
2017-08-09T11:18:14.745Z,350
2017-08-09T11:19:17.612Z,350
2017-08-09T11:20:15.692Z,355
2017-08-09T11:21:14.463Z,360
2017-08-09T11:22:14.770Z,360
2017-08-09T11:23:15.096Z,365
2017-08-09T11:24:14.470Z,375
2017-08-09T11:25:16.348Z,380
2017-08-09T11:26:14.478Z,390
2017-08-09T11:27:15.116Z,375
2017-08-09T11:28:15.144Z,370
2017-08-09T11:29:14.855Z,375
2017-08-09T11:30:16.589Z,365
2017-08-09T11:31:15.111Z,360
2017-08-09T11:32:14.818Z,355
2017-08-09T11:33:14.824Z,355
2017-08-09T11:34:14.843Z,370
2017-08-09T11:35:16.897Z,370
2017-08-09T11:36:14.837Z,380
2017-08-09T11:37:14.848Z,360
2017-08-09T11:38:14.878Z,355
2017-08-09T11:39:15.152Z,355
2017-08-09T11:40:17.164Z,345
2017-08-09T11:41:14.879Z,340
2017-08-09T11:42:14.571Z,345
2017-08-09T11:43:15.195Z,350
2017-08-09T11:44:14.926Z,365
2017-08-09T11:45:16.050Z,365
2017-08-09T11:46:15.213Z,355
2017-08-09T11:47:14.909Z,355
2017-08-09T11:48:15.216Z,365
2017-08-09T11:49:16.162Z,365
2017-08-09T11:50:16.717Z,365
2017-08-09T11:51:14.664Z,370
2017-08-09T11:52:14.954Z,365
2017-08-09T11:53:14.332Z,370
2017-08-09T11:54:14.958Z,365
2017-08-09T11:55:16.126Z,355
2017-08-09T11:56:15.257Z,355
2017-08-09T11:57:14.962Z,355
2017-08-09T11:58:14.961Z,345
2017-08-09T11:59:15.277Z,340
2017-08-09T12:00:15.748Z,340
2017-08-09T12:01:14.999Z,340
2017-08-09T12:02:14.684Z,340
2017-08-09T12:03:15.307Z,355
2017-08-09T12:04:14.995Z,365
2017-08-09T12:05:16.885Z,365
2017-08-09T12:06:15.307Z,365
2017-08-09T12:07:15.016Z,365
2017-08-09T12:08:15.048Z,355
2017-08-09T12:09:15.051Z,340
2017-08-09T12:10:15.508Z,340
2017-08-09T12:11:14.749Z,345
2017-08-09T12:12:14.760Z,355
2017-08-09T12:13:14.744Z,360
2017-08-09T12:14:15.356Z,360
2017-08-09T12:15:15.773Z,355
2017-08-09T12:16:14.463Z,355
2017-08-09T12:17:15.084Z,350
2017-08-09T12:18:14.773Z,350
2017-08-09T12:19:15.089Z,345
2017-08-09T12:20:16.594Z,340
2017-08-09T12:21:15.414Z,340
2017-08-09T12:22:15.405Z,330
2017-08-09T12:23:15.410Z,325
2017-08-09T12:24:15.109Z,315
2017-08-09T12:25:16.728Z,315
2017-08-09T12:26:15.130Z,305
2017-08-09T12:27:15.140Z,295
2017-08-09T12:28:14.835Z,285
2017-08-09T12:29:15.436Z,275
2017-08-09T12:30:16.638Z,270
2017-08-09T12:31:14.838Z,270
2017-08-09T12:32:14.841Z,270
2017-08-09T12:33:15.147Z,275
2017-08-09T12:34:14.849Z,270
2017-08-09T12:35:17.842Z,270
2017-08-09T12:36:14.872Z,265
2017-08-09T12:37:14.600Z,255
2017-08-09T12:38:15.196Z,255
2017-08-09T12:39:15.183Z,255
2017-08-09T12:40:15.787Z,260
2017-08-09T12:41:15.505Z,270
2017-08-09T12:42:15.239Z,280
2017-08-09T12:43:15.514Z,275
2017-08-09T12:44:15.513Z,275
2017-08-09T12:45:16.077Z,270
2017-08-09T12:46:15.248Z,270
2017-08-09T12:47:14.920Z,270
2017-08-09T12:48:15.242Z,265
2017-08-09T12:49:15.537Z,265
2017-08-09T12:50:21.218Z,265
2017-08-09T12:51:15.242Z,275
2017-08-09T12:52:15.558Z,280
2017-08-09T12:53:15.258Z,285
2017-08-09T12:54:15.271Z,290
2017-08-09T12:55:16.054Z,300
2017-08-09T12:56:14.966Z,305
2017-08-09T12:57:14.976Z,305
2017-08-09T12:58:15.442Z,305
2017-08-09T12:59:15.583Z,305
2017-08-09T13:00:16.914Z,315
2017-08-09T13:01:15.611Z,315
2017-08-09T13:02:15.634Z,315
2017-08-09T13:03:15.614Z,315
2017-08-09T13:04:15.320Z,325
2017-08-09T13:05:16.498Z,320
2017-08-09T13:06:15.019Z,320
2017-08-09T13:07:15.027Z,320
2017-08-09T13:08:15.637Z,325
2017-08-09T13:09:15.652Z,325
2017-08-09T13:10:16.429Z,335
2017-08-09T13:11:15.351Z,335
2017-08-09T13:12:15.070Z,340
2017-08-09T13:13:15.664Z,370
2017-08-09T13:14:15.360Z,335
2017-08-09T13:15:16.751Z,335
2017-08-09T13:16:15.398Z,335
2017-08-09T13:17:15.437Z,340
2017-08-09T13:18:15.413Z,335
2017-08-09T13:19:15.435Z,330
2017-08-09T13:20:16.356Z,325
2017-08-09T13:21:18.174Z,320
2017-08-09T13:22:14.848Z,315
2017-08-09T13:23:15.739Z,305
2017-08-09T13:24:15.145Z,295
2017-08-09T13:25:16.519Z,290
2017-08-09T13:26:15.726Z,285
2017-08-09T13:27:15.760Z,285
2017-08-09T13:28:15.787Z,285
2017-08-09T13:29:15.203Z,285
2017-08-09T13:30:16.158Z,285
2017-08-09T13:31:15.185Z,285
2017-08-09T13:32:14.863Z,285
2017-08-09T13:33:15.477Z,290
2017-08-09T13:34:15.476Z,275
2017-08-09T13:35:16.875Z,265
2017-08-09T13:36:15.481Z,255
2017-08-09T13:37:15.497Z,245
2017-08-09T13:38:15.524Z,225
2017-08-09T13:39:15.810Z,220
2017-08-09T13:40:16.851Z,205
2017-08-09T13:41:16.018Z,200
2017-08-09T13:42:15.518Z,200
2017-08-09T13:43:15.579Z,195
2017-08-09T13:44:15.835Z,200
2017-08-09T13:45:17.585Z,200
2017-08-09T13:46:15.242Z,195
2017-08-09T13:47:15.242Z,195
2017-08-09T13:48:15.855Z,185
2017-08-09T13:49:15.584Z,180
2017-08-09T13:50:16.743Z,175
2017-08-09T13:51:16.035Z,170
2017-08-09T13:52:15.270Z,170
2017-08-09T13:53:15.270Z,175
2017-08-09T13:54:15.593Z,180
2017-08-09T13:55:17.606Z,185
2017-08-09T13:56:15.590Z,185
2017-08-09T13:57:15.585Z,185
2017-08-09T13:58:15.927Z,180
2017-08-09T13:59:15.918Z,175
2017-08-09T14:00:16.209Z,170
2017-08-09T14:01:15.330Z,170
2017-08-09T14:02:15.300Z,165
2017-08-09T14:03:15.333Z,170
2017-08-09T14:04:15.331Z,170
2017-08-09T14:05:17.995Z,170
2017-08-09T14:06:15.627Z,170